Lyme, New Hampshire
Current Conditions -  °F | °C
As of 11:17 PM on Wednesday 17 Dec 2014 (Local Time) from KLEB Reporting Station
Haze Haze  
Wind Chill: 34°   Ceiling: 5500
Heat Index: 34°   Visibility: 4mi
Dew Point: 33°   Wind: 0mph
Humidity: 96%   Direction: NA
Pressure: 29.72"   Gusts: NA
Location:  43.81°N, 72.16°W
Report Text: KLEB 180417Z AUTO 00000KT 4SM BR FEW001 SCT016 OVC055 01/01 A2972 RMK AO2 T00110006
Loading
Personal Weather Stations






























Interactive Weather Map New forecast layout! Learn more

10-Day Weather Forecast

Advertisements
Track Severe Weather on mobile